createdAt,value
2023-03-11T00:00:47.506Z,86.20
2023-03-11T00:03:17.842Z,86.50
2023-03-11T00:05:46.564Z,84.40
2023-03-11T00:08:18.827Z,83.40
2023-03-11T00:10:48.578Z,83.70
2023-03-11T00:13:18.742Z,83.10
2023-03-11T00:15:49.767Z,82.40
2023-03-11T00:18:18.097Z,82.20
2023-03-11T00:20:47.390Z,82.60
2023-03-11T00:23:15.543Z,82.40
2023-03-11T00:25:45.871Z,81.30
2023-03-11T00:28:15.048Z,81.50
2023-03-11T00:30:43.397Z,81.70
2023-03-11T00:33:14.131Z,82.10
2023-03-11T00:35:42.157Z,82.30
2023-03-11T00:38:15.822Z,82.20
2023-03-11T00:40:44.551Z,82.30
2023-03-11T00:43:11.881Z,83.40
2023-03-11T00:45:39.427Z,86.00
2023-03-11T00:48:08.017Z,91.50
2023-03-11T00:50:37.601Z,93.30
2023-03-11T00:53:05.889Z,94.90
2023-03-11T00:55:35.518Z,96.30
2023-03-11T00:58:06.194Z,97.00
2023-03-11T01:00:33.888Z,97.40
2023-03-11T01:03:01.641Z,98.30
2023-03-11T01:05:34.042Z,98.70
2023-03-11T01:08:02.407Z,99.00
2023-03-11T01:10:32.117Z,99.10
2023-03-11T01:12:59.488Z,98.60
2023-03-11T01:15:31.763Z,99.20
2023-03-11T01:17:58.886Z,99.20
2023-03-11T01:20:26.231Z,99.40
2023-03-11T01:22:53.632Z,98.80
2023-03-11T01:25:23.971Z,99.40
2023-03-11T01:27:51.645Z,98.80
2023-03-11T01:30:24.834Z,98.70
2023-03-11T01:32:53.792Z,98.50
2023-03-11T01:35:24.355Z,97.70
2023-03-11T01:37:52.724Z,98.00
2023-03-11T01:40:44.392Z,96.90
2023-03-11T01:43:45.500Z,96.50
2023-03-11T01:46:27.920Z,96.50
2023-03-11T01:49:00.040Z,94.90
2023-03-11T01:51:42.923Z,93.60
2023-03-11T01:54:18.575Z,91.40
2023-03-11T01:56:46.852Z,90.20
2023-03-11T01:59:19.622Z,89.80
2023-03-11T02:01:59.425Z,89.50
2023-03-11T02:04:28.747Z,87.20
2023-03-11T02:06:57.357Z,83.80
2023-03-11T02:09:27.103Z,82.00
2023-03-11T02:11:55.499Z,79.20
2023-03-11T02:14:24.530Z,77.50
2023-03-11T02:16:51.628Z,76.40
2023-03-11T02:19:52.957Z,76.50
2023-03-11T02:22:21.326Z,74.70
2023-03-11T02:25:23.782Z,74.50
2023-03-11T02:27:53.981Z,73.90
2023-03-11T02:30:23.999Z,73.20
2023-03-11T02:32:51.293Z,73.10
2023-03-11T02:35:19.169Z,72.80
2023-03-11T02:37:48.974Z,72.00
2023-03-11T02:40:26.979Z,72.70
2023-03-11T02:42:59.862Z,72.50
2023-03-11T02:45:29.418Z,72.70
2023-03-11T02:47:58.868Z,72.40
2023-03-11T02:50:28.922Z,73.00
2023-03-11T02:52:56.470Z,72.20
2023-03-11T02:55:24.051Z,72.80
2023-03-11T02:57:51.145Z,73.30
2023-03-11T03:00:19.018Z,73.50
2023-03-11T03:02:46.975Z,73.40
2023-03-11T03:05:14.166Z,73.20
2023-03-11T03:07:41.282Z,72.80
2023-03-11T03:10:09.622Z,72.60
2023-03-11T03:12:37.243Z,73.10
2023-03-11T03:15:05.131Z,73.20
2023-03-11T03:17:32.293Z,72.80
2023-03-11T03:19:59.476Z,72.00
2023-03-11T03:22:27.641Z,73.10
2023-03-11T03:24:54.868Z,72.80
2023-03-11T03:27:21.960Z,72.60
2023-03-11T03:29:49.153Z,72.90
2023-03-11T03:32:16.358Z,72.10
2023-03-11T03:34:43.486Z,71.80
2023-03-11T03:37:10.659Z,72.60
2023-03-11T03:39:37.741Z,72.60
2023-03-11T03:42:05.113Z,72.30
2023-03-11T03:44:32.328Z,72.70
2023-03-11T03:46:59.570Z,72.70
2023-03-11T03:49:27.394Z,70.20
2023-03-11T03:51:54.454Z,71.20
2023-03-11T03:54:21.563Z,72.30
2023-03-11T03:56:48.662Z,72.80
2023-03-11T03:59:15.948Z,73.30
2023-03-11T04:01:43.188Z,72.30
2023-03-11T04:04:10.266Z,72.50
2023-03-11T04:06:37.426Z,71.80
2023-03-11T04:09:04.598Z,70.90
2023-03-11T04:11:32.978Z,70.20
2023-03-11T04:14:00.273Z,69.60
2023-03-11T04:16:27.459Z,69.60
2023-03-11T04:18:57.741Z,69.40
2023-03-11T04:21:25.082Z,69.80
2023-03-11T04:23:52.256Z,69.70
2023-03-11T04:26:19.443Z,69.70
2023-03-11T04:28:46.578Z,70.50
2023-03-11T04:31:13.869Z,70.20
2023-03-11T04:33:41.003Z,70.70
2023-03-11T04:36:09.694Z,70.70
2023-03-11T04:38:36.834Z,71.00
2023-03-11T04:41:08.270Z,70.50
2023-03-11T04:43:35.440Z,69.70
2023-03-11T04:46:02.726Z,69.40
2023-03-11T04:48:30.044Z,68.10
2023-03-11T04:50:57.427Z,67.80
2023-03-11T04:53:24.725Z,67.50
2023-03-11T04:55:53.858Z,68.00
2023-03-11T04:58:21.139Z,67.90
2023-03-11T05:00:48.384Z,66.70
2023-03-11T05:03:15.684Z,67.00
2023-03-11T05:05:42.892Z,65.90
2023-03-11T05:08:10.184Z,66.50
2023-03-11T05:10:37.329Z,66.50
2023-03-11T05:13:04.810Z,66.40
2023-03-11T05:15:32.881Z,66.60
2023-03-11T05:18:00.236Z,67.00
2023-03-11T05:20:27.396Z,66.70
2023-03-11T05:22:54.544Z,66.60
2023-03-11T05:25:21.639Z,66.60
2023-03-11T05:27:48.724Z,66.60
2023-03-11T05:30:16.729Z,65.70
2023-03-11T05:32:43.966Z,65.40
2023-03-11T05:35:11.490Z,66.00
2023-03-11T05:37:39.361Z,66.10
2023-03-11T05:40:12.204Z,66.20
2023-03-11T05:42:41.362Z,65.70
2023-03-11T05:45:09.991Z,66.40
2023-03-11T05:47:37.133Z,66.30
2023-03-11T05:50:05.640Z,66.20
2023-03-11T05:52:33.955Z,65.90
2023-03-11T05:55:01.407Z,65.60
2023-03-11T05:57:28.602Z,65.70
2023-03-11T05:59:55.714Z,65.20
2023-03-11T06:02:23.394Z,65.40
2023-03-11T06:04:50.733Z,65.30
2023-03-11T06:07:17.965Z,65.00
2023-03-11T06:09:45.350Z,64.90
2023-03-11T06:12:12.576Z,65.60
2023-03-11T06:14:42.487Z,65.70
2023-03-11T06:17:09.699Z,65.40
2023-03-11T06:19:36.884Z,65.40
2023-03-11T06:22:04.029Z,65.20
2023-03-11T06:24:31.115Z,64.40
2023-03-11T06:26:58.265Z,64.60
2023-03-11T06:29:26.753Z,64.70
2023-03-11T06:31:54.027Z,65.20
2023-03-11T06:34:21.274Z,64.80
2023-03-11T06:36:48.380Z,64.70
2023-03-11T06:39:15.744Z,65.20
2023-03-11T06:41:43.103Z,65.40
2023-03-11T06:44:11.569Z,65.40
2023-03-11T06:46:39.052Z,65.30
2023-03-11T06:49:06.446Z,65.40
2023-03-11T06:51:33.775Z,65.40
2023-03-11T06:54:01.146Z,65.50
2023-03-11T06:56:28.393Z,66.00
2023-03-11T06:58:58.145Z,65.70
2023-03-11T07:01:27.382Z,65.50
2023-03-11T07:03:54.682Z,65.50
2023-03-11T07:06:25.173Z,65.40
2023-03-11T07:08:53.570Z,65.40
2023-03-11T07:11:25.000Z,64.80
2023-03-11T07:13:54.433Z,65.10
2023-03-11T07:16:28.037Z,64.70
2023-03-11T07:19:00.915Z,64.80
2023-03-11T07:21:30.065Z,66.00
2023-03-11T07:24:00.863Z,65.10
2023-03-11T07:26:29.839Z,64.80
2023-03-11T07:28:58.374Z,65.20
2023-03-11T07:31:29.848Z,65.00
2023-03-11T07:34:03.910Z,65.30
2023-03-11T07:36:32.261Z,64.50
2023-03-11T07:39:04.421Z,64.70
2023-03-11T07:41:35.798Z,64.50
2023-03-11T07:44:04.685Z,64.70
2023-03-11T07:46:32.773Z,64.20
2023-03-11T07:49:02.579Z,63.70
2023-03-11T07:51:33.575Z,63.00
2023-03-11T07:54:02.128Z,62.50
2023-03-11T07:56:34.621Z,62.60
2023-03-11T07:59:04.220Z,61.90
2023-03-11T08:01:41.302Z,61.40
2023-03-11T08:04:14.430Z,65.50
2023-03-11T08:06:44.567Z,63.00
2023-03-11T08:09:12.223Z,62.80
2023-03-11T08:11:39.413Z,61.70
2023-03-11T08:14:06.988Z,60.60
2023-03-11T08:16:34.327Z,59.80
2023-03-11T08:19:01.795Z,60.00
2023-03-11T08:21:32.265Z,59.50
2023-03-11T08:24:01.889Z,59.00
2023-03-11T08:26:30.636Z,59.20
2023-03-11T08:28:59.328Z,59.00
2023-03-11T08:31:30.660Z,58.50
2023-03-11T08:34:02.713Z,58.20
2023-03-11T08:36:30.926Z,58.40
2023-03-11T08:38:58.715Z,58.40
2023-03-11T08:41:27.058Z,58.50
2023-03-11T08:43:57.291Z,57.40
2023-03-11T08:46:30.094Z,58.30
2023-03-11T08:49:01.074Z,57.70
2023-03-11T08:51:31.551Z,58.10
2023-03-11T08:54:02.775Z,57.60
2023-03-11T08:56:30.068Z,56.50
2023-03-11T08:58:57.420Z,55.80
2023-03-11T09:01:24.628Z,57.10
2023-03-11T09:03:52.207Z,56.40
2023-03-11T09:06:19.905Z,56.10
2023-03-11T09:08:48.992Z,55.40
2023-03-11T09:11:18.582Z,55.00
2023-03-11T09:13:45.872Z,55.70
2023-03-11T09:16:20.357Z,56.20
2023-03-11T09:18:47.868Z,55.40
2023-03-11T09:21:15.355Z,54.60
2023-03-11T09:23:44.284Z,54.70
2023-03-11T09:26:12.824Z,54.90
2023-03-11T09:28:41.563Z,54.30
2023-03-11T09:31:09.768Z,54.70
2023-03-11T09:33:40.346Z,55.00
2023-03-11T09:36:08.799Z,55.20
2023-03-11T09:38:35.938Z,55.50
2023-03-11T09:41:10.465Z,54.80
2023-03-11T09:43:46.355Z,53.80
2023-03-11T09:46:49.486Z,53.30
2023-03-11T09:50:05.933Z,53.50
2023-03-11T09:53:05.019Z,52.00
2023-03-11T09:55:48.112Z,52.10
2023-03-11T09:58:40.286Z,52.40
2023-03-11T10:01:36.041Z,53.40
2023-03-11T10:04:17.645Z,53.10
2023-03-11T10:06:47.679Z,54.50
2023-03-11T10:09:48.079Z,53.60
2023-03-11T10:12:36.606Z,53.60
2023-03-11T10:15:17.926Z,53.00
2023-03-11T10:18:26.270Z,52.50
2023-03-11T10:21:17.540Z,53.00
2023-03-11T10:24:13.075Z,52.90
2023-03-11T10:26:51.516Z,52.60
2023-03-11T10:29:32.653Z,52.80
2023-03-11T10:32:51.008Z,52.80
2023-03-11T10:35:40.446Z,53.00
2023-03-11T10:38:15.990Z,51.70
2023-03-11T10:40:47.253Z,51.10
2023-03-11T10:43:27.851Z,52.30
2023-03-11T10:45:55.821Z,52.00
2023-03-11T10:48:26.017Z,52.10
2023-03-11T10:51:22.683Z,51.50
2023-03-11T10:53:59.690Z,51.80
2023-03-11T10:56:41.193Z,51.70
2023-03-11T10:59:34.928Z,51.20
2023-03-11T11:02:27.607Z,50.70
2023-03-11T11:05:18.919Z,49.90
2023-03-11T11:07:53.233Z,50.50
2023-03-11T11:10:21.895Z,51.60
2023-03-11T11:13:17.053Z,52.10
2023-03-11T11:15:58.073Z,52.70
2023-03-11T11:18:42.699Z,52.70
2023-03-11T11:21:17.495Z,50.40
2023-03-11T11:24:08.962Z,51.10
2023-03-11T11:26:36.166Z,49.60
2023-03-11T11:29:12.491Z,49.40
2023-03-11T11:31:46.055Z,48.00
2023-03-11T11:34:34.850Z,49.30
2023-03-11T11:37:06.219Z,50.30
2023-03-11T11:39:52.033Z,51.50
2023-03-11T11:42:20.621Z,52.10
2023-03-11T11:44:52.289Z,52.90
2023-03-11T11:47:30.188Z,54.00
2023-03-11T11:50:05.168Z,52.50
2023-03-11T11:52:40.367Z,52.70
2023-03-11T11:55:18.025Z,52.70
2023-03-11T11:57:45.132Z,51.90
2023-03-11T12:00:29.931Z,51.20
2023-03-11T12:03:25.577Z,52.30
2023-03-11T12:05:58.433Z,52.20
2023-03-11T12:09:05.484Z,51.50
2023-03-11T12:11:44.103Z,50.70
2023-03-11T12:14:40.989Z,50.80
2023-03-11T12:17:11.781Z,51.30
2023-03-11T12:19:54.398Z,51.50
2023-03-11T12:22:50.016Z,52.00
2023-03-11T12:25:42.410Z,52.90
2023-03-11T12:28:24.597Z,53.00
2023-03-11T12:30:58.270Z,52.70
2023-03-11T12:34:02.486Z,53.10
2023-03-11T12:36:39.306Z,53.40
2023-03-11T12:39:38.002Z,53.50
2023-03-11T12:42:11.274Z,53.20
2023-03-11T12:44:40.486Z,53.10
2023-03-11T12:47:13.556Z,53.40
2023-03-11T12:49:47.232Z,53.70
2023-03-11T12:52:14.238Z,53.60
2023-03-11T12:55:10.225Z,54.10
2023-03-11T12:57:53.388Z,54.40
2023-03-11T13:01:26.987Z,54.70
2023-03-11T13:04:06.996Z,54.70
2023-03-11T13:07:12.609Z,55.30
2023-03-11T13:09:40.277Z,55.50
2023-03-11T13:12:45.938Z,55.20
2023-03-11T13:15:20.168Z,55.40
2023-03-11T13:18:19.747Z,55.80
2023-03-11T13:20:51.102Z,55.70
2023-03-11T13:23:27.554Z,55.40
2023-03-11T13:25:54.755Z,56.20
2023-03-11T13:29:02.373Z,56.10
2023-03-11T13:31:52.431Z,56.30
2023-03-11T13:35:11.503Z,56.50
2023-03-11T13:38:12.444Z,56.70
2023-03-11T13:40:45.219Z,56.00
2023-03-11T13:43:18.290Z,56.20
2023-03-11T13:46:00.317Z,57.50
2023-03-11T13:48:31.530Z,57.30
2023-03-11T13:51:17.471Z,55.90
2023-03-11T13:54:03.950Z,55.60
2023-03-11T13:56:45.198Z,55.50
2023-03-11T13:59:39.112Z,55.70
2023-03-11T14:02:08.925Z,55.70
2023-03-11T14:04:38.419Z,55.80
2023-03-11T14:07:30.916Z,56.50
2023-03-11T14:10:19.729Z,56.70
2023-03-11T14:12:47.526Z,57.00
2023-03-11T14:15:27.123Z,56.40
2023-03-11T14:18:14.900Z,56.10
2023-03-11T14:20:42.228Z,55.40
2023-03-11T14:23:19.364Z,55.40
2023-03-11T14:25:46.896Z,55.90
2023-03-11T14:28:21.510Z,54.80
2023-03-11T14:31:01.309Z,55.00
2023-03-11T14:33:28.536Z,55.10
2023-03-11T14:36:04.215Z,54.70
2023-03-11T14:38:32.465Z,55.40
2023-03-11T14:41:08.014Z,55.00
2023-03-11T14:43:43.328Z,55.00
2023-03-11T14:46:26.635Z,55.20
2023-03-11T14:48:57.102Z,55.20
2023-03-11T14:51:33.711Z,55.10
2023-03-11T14:54:24.429Z,54.30
2023-03-11T14:57:16.558Z,54.50
2023-03-11T14:59:49.140Z,54.10
2023-03-11T15:03:04.112Z,53.80
2023-03-11T15:05:46.323Z,54.20
2023-03-11T15:08:16.522Z,54.50
2023-03-11T15:11:22.426Z,55.30
2023-03-11T15:13:51.327Z,54.80
2023-03-11T15:16:38.085Z,55.50
2023-03-11T15:19:29.639Z,55.80
2023-03-11T15:22:22.729Z,56.10
2023-03-11T15:24:59.115Z,54.50
2023-03-11T15:27:52.921Z,54.50
2023-03-11T15:30:31.620Z,54.30
2023-03-11T15:32:59.521Z,54.70
2023-03-11T15:35:30.202Z,55.10
2023-03-11T15:38:20.881Z,55.50
2023-03-11T15:40:59.538Z,55.60
2023-03-11T15:43:48.626Z,55.00
2023-03-11T15:46:17.292Z,54.20
2023-03-11T15:48:45.077Z,54.70
2023-03-11T15:51:21.118Z,55.40
2023-03-11T15:53:49.808Z,55.10
2023-03-11T15:56:25.299Z,55.00
2023-03-11T15:58:53.143Z,55.10
2023-03-11T16:01:23.761Z,55.50
2023-03-11T16:03:54.708Z,55.50
2023-03-11T16:06:24.923Z,55.70
2023-03-11T16:08:52.606Z,56.40
2023-03-11T16:11:20.106Z,56.80
2023-03-11T16:13:47.830Z,57.20
2023-03-11T16:16:21.152Z,57.20
2023-03-11T16:18:49.087Z,57.50
2023-03-11T16:21:23.302Z,57.90
2023-03-11T16:23:52.402Z,57.60
2023-03-11T16:26:25.536Z,57.80
2023-03-11T16:28:53.780Z,57.60
2023-03-11T16:31:23.593Z,58.00
2023-03-11T16:33:50.901Z,58.20
2023-03-11T16:36:19.021Z,58.30
2023-03-11T16:38:52.645Z,58.10
2023-03-11T16:41:21.180Z,58.30
2023-03-11T16:43:48.809Z,58.40
2023-03-11T16:46:16.765Z,58.30
2023-03-11T16:48:44.102Z,58.30
2023-03-11T16:51:11.722Z,58.30
2023-03-11T16:53:39.328Z,58.90
2023-03-11T16:56:07.075Z,59.10
2023-03-11T16:58:34.398Z,59.60
2023-03-11T17:01:04.652Z,59.80
2023-03-11T17:03:42.091Z,61.40
2023-03-11T17:06:12.910Z,62.10
2023-03-11T17:08:40.803Z,62.50
2023-03-11T17:11:19.842Z,63.10
2023-03-11T17:13:47.896Z,63.70
2023-03-11T17:16:17.431Z,64.30
2023-03-11T17:18:45.296Z,64.60
2023-03-11T17:21:19.248Z,64.90
2023-03-11T17:23:47.104Z,65.10
2023-03-11T17:26:18.022Z,65.50
2023-03-11T17:28:45.839Z,66.10
2023-03-11T17:31:16.822Z,66.40
2023-03-11T17:33:47.157Z,66.80
2023-03-11T17:36:18.620Z,67.20
2023-03-11T17:38:52.116Z,67.60
2023-03-11T17:41:20.520Z,67.80
2023-03-11T17:43:51.731Z,67.80
2023-03-11T17:46:22.676Z,68.00
2023-03-11T17:48:53.820Z,67.90
2023-03-11T17:51:26.153Z,68.00
2023-03-11T17:53:57.908Z,67.80
2023-03-11T17:56:26.355Z,67.90
2023-03-11T17:58:54.180Z,68.00
2023-03-11T18:01:28.033Z,67.70
2023-03-11T18:03:57.163Z,68.00
2023-03-11T18:06:27.668Z,68.30
2023-03-11T18:08:55.729Z,68.30
2023-03-11T18:11:32.803Z,68.50
2023-03-11T18:14:00.210Z,68.70
2023-03-11T18:16:32.252Z,68.60
2023-03-11T18:19:00.037Z,68.30
2023-03-11T18:21:30.573Z,68.00
2023-03-11T18:24:01.320Z,68.30
2023-03-11T18:26:31.253Z,68.00
2023-03-11T18:29:02.906Z,68.10
2023-03-11T18:31:31.825Z,68.30
2023-03-11T18:34:05.233Z,67.50
2023-03-11T18:36:37.929Z,67.60
2023-03-11T18:39:07.436Z,66.90
2023-03-11T18:41:36.124Z,66.80
2023-03-11T18:44:04.665Z,66.50
2023-03-11T18:46:34.953Z,66.60
2023-03-11T18:49:04.619Z,66.60
2023-03-11T18:51:33.976Z,66.90
2023-03-11T18:54:02.787Z,66.80
2023-03-11T18:56:34.222Z,66.80
2023-03-11T18:59:02.247Z,67.00
2023-03-11T19:01:33.621Z,67.40
2023-03-11T19:04:02.120Z,67.10
2023-03-11T19:06:32.444Z,67.40
2023-03-11T19:09:00.123Z,67.50
2023-03-11T19:11:28.457Z,67.70
2023-03-11T19:13:56.607Z,67.90
2023-03-11T19:16:27.003Z,67.90
2023-03-11T19:18:56.732Z,67.90
2023-03-11T19:21:28.753Z,68.10
2023-03-11T19:23:59.853Z,68.40
2023-03-11T19:26:43.810Z,68.30
2023-03-11T19:29:14.529Z,68.30
2023-03-11T19:31:44.157Z,68.80
2023-03-11T19:34:16.959Z,68.90
2023-03-11T19:36:47.446Z,69.20
2023-03-11T19:39:16.668Z,69.50
2023-03-11T19:41:44.282Z,69.50
2023-03-11T19:44:29.035Z,69.70
2023-03-11T19:46:57.293Z,70.10
2023-03-11T19:49:25.077Z,70.30
2023-03-11T19:51:53.704Z,70.40
2023-03-11T19:54:23.181Z,70.80
2023-03-11T19:56:54.527Z,70.80
2023-03-11T19:59:22.654Z,71.20
2023-03-11T20:01:50.956Z,71.20
2023-03-11T20:04:19.106Z,71.30
2023-03-11T20:06:56.086Z,71.70
2023-03-11T20:09:23.991Z,72.10
2023-03-11T20:11:52.609Z,72.20
2023-03-11T20:14:20.398Z,72.20
2023-03-11T20:16:48.527Z,72.50
2023-03-11T20:19:16.675Z,72.70
2023-03-11T20:21:46.677Z,72.80
2023-03-11T20:24:14.747Z,73.10
2023-03-11T20:26:42.756Z,73.30
2023-03-11T20:29:13.762Z,73.00
2023-03-11T20:31:42.104Z,73.00
2023-03-11T20:34:11.636Z,73.00
2023-03-11T20:36:39.716Z,73.20
2023-03-11T20:39:10.932Z,73.20
2023-03-11T20:41:41.044Z,73.60
2023-03-11T20:44:12.590Z,73.70
2023-03-11T20:46:45.088Z,74.00
2023-03-11T20:49:20.803Z,74.10
2023-03-11T20:51:51.987Z,74.00
2023-03-11T20:54:20.282Z,74.20
2023-03-11T20:56:50.782Z,74.50
2023-03-11T20:59:18.954Z,75.00
2023-03-11T21:01:46.995Z,75.50
2023-03-11T21:04:16.976Z,75.60
2023-03-11T21:06:45.199Z,76.10
2023-03-11T21:09:14.924Z,76.30
2023-03-11T21:11:42.820Z,76.70
2023-03-11T21:14:11.950Z,76.90
2023-03-11T21:16:40.098Z,77.40
2023-03-11T21:19:08.996Z,77.80
2023-03-11T21:21:37.727Z,78.20
2023-03-11T21:24:06.253Z,78.50
2023-03-11T21:26:33.734Z,78.90
2023-03-11T21:29:01.170Z,79.60
2023-03-11T21:31:29.657Z,79.40
2023-03-11T21:33:59.276Z,79.70
2023-03-11T21:36:28.081Z,79.80
2023-03-11T21:38:55.594Z,79.90
2023-03-11T21:41:26.682Z,80.00
2023-03-11T21:43:56.304Z,80.30
2023-03-11T21:46:28.710Z,80.70
2023-03-11T21:48:56.341Z,81.50
2023-03-11T21:51:24.406Z,81.60
2023-03-11T21:53:52.300Z,82.00
2023-03-11T21:56:19.702Z,82.00
2023-03-11T21:58:46.960Z,82.10
2023-03-11T22:01:14.519Z,82.30
2023-03-11T22:03:41.972Z,82.50
2023-03-11T22:06:12.184Z,82.50
2023-03-11T22:08:40.315Z,82.40
2023-03-11T22:11:10.762Z,82.80
2023-03-11T22:13:38.208Z,83.30
2023-03-11T22:16:07.265Z,83.30
2023-03-11T22:18:34.683Z,83.40
2023-03-11T22:21:02.486Z,84.00
2023-03-11T22:23:29.905Z,84.40
2023-03-11T22:25:57.404Z,84.70
2023-03-11T22:28:25.384Z,85.10
2023-03-11T22:30:52.619Z,85.60
2023-03-11T22:33:19.901Z,85.90
2023-03-11T22:35:56.689Z,86.10
2023-03-11T22:38:24.107Z,86.00
2023-03-11T22:40:52.058Z,86.40
2023-03-11T22:43:19.472Z,86.40
2023-03-11T22:45:46.986Z,85.40
2023-03-11T22:48:14.265Z,85.00
2023-03-11T22:50:45.084Z,84.80
2023-03-11T22:53:13.790Z,84.70
2023-03-11T22:55:43.209Z,84.00
2023-03-11T22:58:11.101Z,84.10
2023-03-11T23:00:39.021Z,83.90
2023-03-11T23:03:06.851Z,83.50
2023-03-11T23:05:40.871Z,83.30
2023-03-11T23:08:14.672Z,83.30
2023-03-11T23:10:47.224Z,83.00
2023-03-11T23:13:15.470Z,83.20
2023-03-11T23:15:45.687Z,83.50
2023-03-11T23:18:14.291Z,83.50
2023-03-11T23:20:43.215Z,83.60
2023-03-11T23:23:12.426Z,83.70
2023-03-11T23:25:40.998Z,83.70
2023-03-11T23:28:08.282Z,83.90
2023-03-11T23:30:35.850Z,84.10
2023-03-11T23:33:03.454Z,84.40
2023-03-11T23:35:32.017Z,84.90
2023-03-11T23:38:00.133Z,84.90
2023-03-11T23:40:27.395Z,85.20
2023-03-11T23:42:54.611Z,85.60
2023-03-11T23:45:21.794Z,86.00
2023-03-11T23:47:48.989Z,86.40
2023-03-11T23:50:16.487Z,86.90
2023-03-11T23:52:44.026Z,87.20
2023-03-11T23:55:12.128Z,87.60
2023-03-11T23:57:39.453Z,87.90
